createdAt,value
2022-08-30T00:01:35.158Z,99427.00
2022-08-30T00:04:03.567Z,99425.28
2022-08-30T00:06:31.690Z,99435.34
2022-08-30T00:09:00.118Z,99428.09
2022-08-30T00:11:28.596Z,99421.59
2022-08-30T00:13:57.333Z,99426.41
2022-08-30T00:16:26.863Z,99427.50
2022-08-30T00:18:55.638Z,99427.09
2022-08-30T00:21:24.247Z,99427.59
2022-08-30T00:23:52.298Z,99429.47
2022-08-30T00:26:20.548Z,99429.56
2022-08-30T00:28:48.289Z,99422.47
2022-08-30T00:31:16.117Z,99422.81
2022-08-30T00:33:44.403Z,99433.59
2022-08-30T00:36:12.366Z,99427.38
2022-08-30T00:38:40.295Z,99425.44
2022-08-30T00:41:08.439Z,99429.03
2022-08-30T00:43:37.066Z,99429.25
2022-08-30T00:46:08.811Z,99429.06
2022-08-30T00:48:40.743Z,99427.41
2022-08-30T00:51:10.620Z,99429.22
2022-08-30T00:53:42.661Z,99430.75
2022-08-30T00:56:10.789Z,99427.97
2022-08-30T00:58:42.958Z,99423.31
2022-08-30T01:01:11.128Z,99428.94
2022-08-30T01:03:40.355Z,99425.22
2022-08-30T01:06:08.291Z,99425.62
2022-08-30T01:08:36.153Z,99425.38
2022-08-30T01:11:04.637Z,99431.09
2022-08-30T01:13:34.808Z,99426.38
2022-08-30T01:16:03.358Z,99425.22
2022-08-30T01:18:32.487Z,99423.91
2022-08-30T01:21:19.647Z,99420.22
2022-08-30T01:23:50.399Z,99421.09
2022-08-30T01:26:19.783Z,99421.22
2022-08-30T01:28:53.206Z,99415.81
2022-08-30T01:31:21.096Z,99419.38
2022-08-30T01:33:48.866Z,99423.25
2022-08-30T01:36:17.549Z,99416.88
2022-08-30T01:38:53.849Z,99419.41
2022-08-30T01:41:34.506Z,99422.09
2022-08-30T01:44:08.536Z,99413.28
2022-08-30T01:46:41.296Z,99416.63
2022-08-30T01:49:13.645Z,99415.41
2022-08-30T01:51:42.157Z,99413.53
2022-08-30T01:54:10.908Z,99410.12
2022-08-30T01:56:38.718Z,99411.09
2022-08-30T01:59:06.988Z,99412.50
2022-08-30T02:01:37.314Z,99412.72
2022-08-30T02:04:06.717Z,99409.22
2022-08-30T02:06:34.860Z,99404.31
2022-08-30T02:09:02.678Z,99410.06
2022-08-30T02:11:31.037Z,99405.16
2022-08-30T02:13:59.139Z,99402.09
2022-08-30T02:16:27.025Z,99404.75
2022-08-30T02:18:57.457Z,99405.31
2022-08-30T02:21:27.700Z,99401.53
2022-08-30T02:23:56.177Z,99405.66
2022-08-30T02:26:24.389Z,99405.38
2022-08-30T02:28:53.089Z,99401.13
2022-08-30T02:31:22.324Z,99398.94
2022-08-30T02:33:51.718Z,99407.63
2022-08-30T02:36:20.986Z,99406.56
2022-08-30T02:38:50.057Z,99407.88
2022-08-30T02:41:18.815Z,99408.56
2022-08-30T02:43:46.869Z,99407.78
2022-08-30T02:46:15.178Z,99411.06
2022-08-30T02:48:43.737Z,99414.09
2022-08-30T02:51:14.080Z,99410.12
2022-08-30T02:53:44.014Z,99407.16
2022-08-30T02:56:13.227Z,99407.37
2022-08-30T02:58:45.055Z,99406.53
2022-08-30T03:01:14.670Z,99407.72
2022-08-30T03:03:43.896Z,99406.50
2022-08-30T03:06:12.357Z,99402.34
2022-08-30T03:08:40.578Z,99408.41
2022-08-30T03:11:08.900Z,99402.91
2022-08-30T03:13:36.877Z,99403.09
2022-08-30T03:16:05.249Z,99407.41
2022-08-30T03:18:33.730Z,99410.47
2022-08-30T03:21:01.706Z,99408.06
2022-08-30T03:23:30.297Z,99412.09
2022-08-30T03:25:58.070Z,99415.56
2022-08-30T03:28:25.846Z,99415.72
2022-08-30T03:30:54.649Z,99423.38
2022-08-30T03:33:22.829Z,99423.69
2022-08-30T03:35:50.637Z,99422.84
2022-08-30T03:38:18.726Z,99425.91
2022-08-30T03:40:46.481Z,99433.78
2022-08-30T03:43:14.597Z,99429.16
2022-08-30T03:45:43.398Z,99439.06
2022-08-30T03:48:11.304Z,99435.81
2022-08-30T03:50:39.157Z,99442.63
2022-08-30T03:53:07.567Z,99431.00
2022-08-30T03:55:35.387Z,99437.28
2022-08-30T03:58:03.276Z,99441.91
2022-08-30T04:00:31.377Z,99439.31
2022-08-30T04:02:59.638Z,99441.28
2022-08-30T04:05:27.725Z,99442.25
2022-08-30T04:07:55.497Z,99440.72
2022-08-30T04:10:23.628Z,99452.13
2022-08-30T04:12:51.487Z,99447.56
2022-08-30T04:15:20.019Z,99454.19
2022-08-30T04:17:48.477Z,99453.84
2022-08-30T04:20:16.918Z,99464.62
2022-08-30T04:22:44.831Z,99465.72
2022-08-30T04:25:15.587Z,99468.84
2022-08-30T04:27:45.920Z,99469.72
2022-08-30T04:30:15.998Z,99477.31
2022-08-30T04:32:44.665Z,99487.78
2022-08-30T04:35:14.189Z,99487.66
2022-08-30T04:37:42.984Z,99488.53
2022-08-30T04:40:12.122Z,99493.03
2022-08-30T04:42:40.677Z,99504.41
2022-08-30T04:45:11.667Z,99507.22
2022-08-30T04:47:39.444Z,99506.16
2022-08-30T04:50:09.570Z,99514.19
2022-08-30T04:52:38.141Z,99512.50
2022-08-30T04:55:06.686Z,99509.41
2022-08-30T04:57:35.319Z,99512.75
2022-08-30T05:00:05.856Z,99509.59
2022-08-30T05:02:33.612Z,99511.66
2022-08-30T05:05:20.917Z,99517.19
2022-08-30T05:07:49.117Z,99522.94
2022-08-30T05:10:16.901Z,99517.66
2022-08-30T05:12:44.826Z,99516.66
2022-08-30T05:15:13.540Z,99519.78
2022-08-30T05:17:41.564Z,99522.66
2022-08-30T05:20:10.995Z,99520.09
2022-08-30T05:22:42.542Z,99522.50
2022-08-30T05:25:14.777Z,99525.09
2022-08-30T05:27:42.867Z,99519.16
2022-08-30T05:30:12.002Z,99521.75
2022-08-30T05:32:39.967Z,99526.22
2022-08-30T05:35:09.487Z,99523.22
2022-08-30T05:37:37.727Z,99522.28
2022-08-30T05:40:10.930Z,99522.69
2022-08-30T05:42:41.855Z,99524.28
2022-08-30T05:45:10.806Z,99526.06
2022-08-30T05:47:38.857Z,99526.22
2022-08-30T05:50:08.383Z,99527.00
2022-08-30T05:52:38.358Z,99524.25
2022-08-30T05:55:07.955Z,99530.88
2022-08-30T05:57:37.809Z,99527.47
2022-08-30T06:00:11.719Z,99540.78
2022-08-30T06:02:41.766Z,99535.84
2022-08-30T06:05:14.151Z,99537.50
2022-08-30T06:07:43.653Z,99537.69
2022-08-30T06:10:12.741Z,99538.88
2022-08-30T06:12:40.966Z,99545.28
2022-08-30T06:15:09.206Z,99543.59
2022-08-30T06:17:39.854Z,99542.56
2022-08-30T06:20:09.693Z,99547.59
2022-08-30T06:22:39.097Z,99553.31
2022-08-30T06:25:07.637Z,99550.25
2022-08-30T06:27:35.498Z,99543.06
2022-08-30T06:30:08.317Z,99549.84
2022-08-30T06:32:39.357Z,99542.47
2022-08-30T06:35:16.327Z,99544.81
2022-08-30T06:37:46.744Z,99544.50
2022-08-30T06:40:26.529Z,99544.81
2022-08-30T06:42:55.847Z,99554.75
2022-08-30T06:45:24.113Z,99551.59
2022-08-30T06:47:54.094Z,99550.19
2022-08-30T06:50:29.353Z,99553.03
2022-08-30T06:53:06.864Z,99550.41
2022-08-30T06:55:35.517Z,99547.75
2022-08-30T06:58:04.966Z,99550.47
2022-08-30T07:00:32.718Z,99548.44
2022-08-30T07:03:01.881Z,99560.38
2022-08-30T07:05:30.038Z,99562.09
2022-08-30T07:07:57.850Z,99563.56
2022-08-30T07:10:25.998Z,99564.56
2022-08-30T07:12:54.152Z,99575.59
2022-08-30T07:15:23.187Z,99569.81
2022-08-30T07:18:09.548Z,99566.84
2022-08-30T07:20:40.282Z,99568.56
2022-08-30T07:23:10.057Z,99574.34
2022-08-30T07:25:39.886Z,99569.53
2022-08-30T07:28:08.797Z,99574.44
2022-08-30T07:30:36.736Z,99577.13
2022-08-30T07:33:05.100Z,99577.97
2022-08-30T07:35:33.103Z,99582.66
2022-08-30T07:38:01.080Z,99582.66
2022-08-30T07:40:29.404Z,99579.59
2022-08-30T07:42:57.262Z,99574.78
2022-08-30T07:45:25.199Z,99573.00
2022-08-30T07:47:53.432Z,99573.53
2022-08-30T07:50:22.559Z,99572.41
2022-08-30T07:52:50.394Z,99577.59
2022-08-30T07:55:19.076Z,99579.03
2022-08-30T07:57:46.957Z,99574.31
2022-08-30T08:00:15.428Z,99572.41
2022-08-30T08:02:43.796Z,99574.03
2022-08-30T08:05:15.236Z,99572.88
2022-08-30T08:07:46.001Z,99578.88
2022-08-30T08:10:14.878Z,99571.50
2022-08-30T08:12:42.779Z,99573.69
2022-08-30T08:15:11.618Z,99581.03
2022-08-30T08:17:39.520Z,99589.03
2022-08-30T08:20:08.058Z,99581.13
2022-08-30T08:22:39.920Z,99579.38
2022-08-30T08:25:08.487Z,99579.34
2022-08-30T08:27:36.669Z,99573.78
2022-08-30T08:30:05.641Z,99580.97
2022-08-30T08:32:33.722Z,99584.66
2022-08-30T08:35:02.416Z,99583.25
2022-08-30T08:37:30.274Z,99578.66
2022-08-30T08:39:58.164Z,99584.47
2022-08-30T08:42:40.470Z,99580.28
2022-08-30T08:45:20.525Z,99582.81
2022-08-30T08:48:04.367Z,99576.56
2022-08-30T08:50:32.437Z,99577.69
2022-08-30T08:53:45.140Z,99575.00
2022-08-30T08:56:15.309Z,99577.69
2022-08-30T08:58:50.259Z,99572.97
2022-08-30T09:01:21.247Z,99572.13
2022-08-30T09:03:50.529Z,99579.63
2022-08-30T09:06:55.747Z,99568.06
2022-08-30T09:09:28.272Z,99569.25
2022-08-30T09:11:56.380Z,99563.09
2022-08-30T09:14:33.929Z,99561.56
2022-08-30T09:17:03.949Z,99565.72
2022-08-30T09:19:35.348Z,99564.06
2022-08-30T09:22:12.348Z,99557.53
2022-08-30T09:24:44.009Z,99557.59
2022-08-30T09:27:17.580Z,99558.25
2022-08-30T09:29:56.049Z,99552.88
2022-08-30T09:32:52.728Z,99550.75
2022-08-30T09:35:38.059Z,99545.81
2022-08-30T09:38:11.248Z,99547.00
2022-08-30T09:40:47.399Z,99544.31
2022-08-30T09:43:18.837Z,99538.31
2022-08-30T09:45:50.645Z,99540.56
2022-08-30T09:48:40.796Z,99545.25
2022-08-30T09:51:12.148Z,99540.22
2022-08-30T09:54:01.247Z,99536.59
2022-08-30T09:56:56.394Z,99531.56
2022-08-30T09:59:36.632Z,99531.97
2022-08-30T10:02:25.609Z,99530.69
2022-08-30T10:05:10.170Z,99526.22
2022-08-30T10:07:43.479Z,99528.09
2022-08-30T10:10:20.097Z,99521.75
2022-08-30T10:13:23.340Z,99523.28
2022-08-30T10:15:58.245Z,99527.34
2022-08-30T10:18:48.438Z,99527.38
2022-08-30T10:21:40.680Z,99523.06
2022-08-30T10:24:21.004Z,99517.66
2022-08-30T10:26:53.499Z,99521.87
2022-08-30T10:29:59.602Z,99518.09
2022-08-30T10:32:47.229Z,99514.78
2022-08-30T10:35:19.714Z,99513.50
2022-08-30T10:37:55.487Z,99519.03
2022-08-30T10:40:49.209Z,99508.47
2022-08-30T10:44:00.267Z,99505.37
2022-08-30T10:46:40.575Z,99499.03
2022-08-30T10:49:19.910Z,99496.34
2022-08-30T10:52:22.535Z,99498.91
2022-08-30T10:54:55.109Z,99493.94
2022-08-30T10:57:23.413Z,99489.50
2022-08-30T11:00:01.495Z,99492.63
2022-08-30T11:03:10.908Z,99479.31
2022-08-30T11:05:48.287Z,99486.38
2022-08-30T11:08:31.395Z,99484.00
2022-08-30T11:11:17.703Z,99483.59
2022-08-30T11:13:46.330Z,99478.34
2022-08-30T11:16:17.099Z,99471.25
2022-08-30T11:18:59.177Z,99473.03
2022-08-30T11:21:37.383Z,99472.56
2022-08-30T11:24:24.789Z,99469.00
2022-08-30T11:27:01.491Z,99452.69
2022-08-30T11:29:33.895Z,99461.16
2022-08-30T11:32:17.676Z,99461.63
2022-08-30T11:34:45.706Z,99463.47
2022-08-30T11:37:13.898Z,99460.75
2022-08-30T11:39:45.137Z,99454.81
2022-08-30T11:42:29.357Z,99453.00
2022-08-30T11:45:26.717Z,99451.06
2022-08-30T11:48:05.789Z,99440.69
2022-08-30T11:50:44.290Z,99446.94
2022-08-30T11:53:30.027Z,99444.37
2022-08-30T11:56:10.555Z,99435.47
2022-08-30T11:59:00.508Z,99434.97
2022-08-30T12:01:51.259Z,99429.25
2022-08-30T12:04:16.799Z,99422.91
2022-08-30T12:06:57.251Z,99421.97
2022-08-30T12:09:25.526Z,99422.75
2022-08-30T12:12:05.820Z,99413.87
2022-08-30T12:14:47.798Z,99416.03
2022-08-30T12:17:43.470Z,99411.72
2022-08-30T12:20:23.437Z,99415.28
2022-08-30T12:22:52.991Z,99406.53
2022-08-30T12:25:33.748Z,99401.44
2022-08-30T12:28:22.881Z,99390.84
2022-08-30T12:30:51.548Z,99391.44
2022-08-30T12:33:41.459Z,99397.66
2022-08-30T12:36:31.657Z,99387.44
2022-08-30T12:39:18.637Z,99382.88
2022-08-30T12:41:46.924Z,99370.47
2022-08-30T12:44:17.958Z,99372.56
2022-08-30T12:46:49.447Z,99372.16
2022-08-30T12:49:19.024Z,99363.88
2022-08-30T12:51:47.332Z,99367.47
2022-08-30T12:54:30.184Z,99368.16
2022-08-30T12:57:35.004Z,99357.03
2022-08-30T13:00:01.574Z,99350.72
2022-08-30T13:02:52.253Z,99353.91
2022-08-30T13:05:45.619Z,99355.06
2022-08-30T13:08:25.863Z,99352.84
2022-08-30T13:10:55.498Z,99349.44
2022-08-30T13:13:28.599Z,99350.91
2022-08-30T13:15:56.811Z,99346.09
2022-08-30T13:18:33.815Z,99341.50
2022-08-30T13:21:21.629Z,99334.78
2022-08-30T13:23:51.350Z,99336.22
2022-08-30T13:26:22.942Z,99334.34
2022-08-30T13:28:58.796Z,99330.47
2022-08-30T13:31:28.581Z,99329.94
2022-08-30T13:33:59.338Z,99324.78
2022-08-30T13:36:32.876Z,99324.28
2022-08-30T13:39:01.720Z,99316.34
2022-08-30T13:41:34.165Z,99313.66
2022-08-30T13:44:13.394Z,99303.97
2022-08-30T13:46:53.517Z,99310.06
2022-08-30T13:52:21.834Z,99310.50
2022-08-30T13:54:51.245Z,99308.06
2022-08-30T14:00:15.275Z,99306.56
2022-08-30T14:02:47.760Z,99306.47
2022-08-30T14:05:46.983Z,99296.47
2022-08-30T14:08:44.218Z,99297.44
2022-08-30T14:10:58.409Z,99298.72
2022-08-30T14:13:30.778Z,99292.78
2022-08-30T14:18:49.590Z,99290.06
2022-08-30T14:21:17.614Z,99283.59
2022-08-30T14:23:49.730Z,99285.88
2022-08-30T14:26:20.206Z,99278.34
2022-08-30T14:28:51.442Z,99275.31
2022-08-30T14:31:20.602Z,99276.44
2022-08-30T14:33:49.000Z,99269.97
2022-08-30T14:36:17.735Z,99280.19
2022-08-30T14:38:46.257Z,99273.12
2022-08-30T14:41:15.881Z,99268.56
2022-08-30T14:43:44.246Z,99267.06
2022-08-30T14:46:12.725Z,99267.19
2022-08-30T14:48:43.030Z,99270.75
2022-08-30T14:51:17.056Z,99272.13
2022-08-30T14:53:45.930Z,99278.25
2022-08-30T14:56:17.077Z,99267.09
2022-08-30T14:58:49.606Z,99272.28
2022-08-30T15:01:18.480Z,99268.94
2022-08-30T15:03:46.877Z,99270.03
2022-08-30T15:06:15.281Z,99262.59
2022-08-30T15:08:47.696Z,99268.87
2022-08-30T15:11:19.382Z,99272.31
2022-08-30T15:13:47.476Z,99265.22
2022-08-30T15:16:21.621Z,99268.66
2022-08-30T15:18:50.417Z,99266.91
2022-08-30T15:21:27.865Z,99263.97
2022-08-30T15:23:58.055Z,99260.03
2022-08-30T15:26:26.318Z,99260.69
2022-08-30T15:28:56.109Z,99262.72
2022-08-30T15:31:31.310Z,99266.78
2022-08-30T15:33:59.436Z,99256.56
2022-08-30T15:36:29.276Z,99257.22
2022-08-30T15:38:59.624Z,99258.72
2022-08-30T15:41:28.824Z,99259.97
2022-08-30T15:43:57.918Z,99256.31
2022-08-30T15:46:32.399Z,99256.75
2022-08-30T15:49:21.584Z,99255.22
2022-08-30T15:51:51.483Z,99252.16
2022-08-30T15:54:23.686Z,99258.34
2022-08-30T15:56:59.412Z,99250.62
2022-08-30T15:59:30.606Z,99260.03
2022-08-30T16:01:58.734Z,99263.41
2022-08-30T16:04:27.965Z,99253.72
2022-08-30T16:06:55.946Z,99251.09
2022-08-30T16:09:24.358Z,99256.41
2022-08-30T16:11:53.398Z,99254.28
2022-08-30T16:14:21.214Z,99251.94
2022-08-30T16:16:49.157Z,99248.88
2022-08-30T16:19:17.341Z,99247.75
2022-08-30T16:21:45.352Z,99246.13
2022-08-30T16:24:14.361Z,99242.28
2022-08-30T16:26:43.317Z,99237.13
2022-08-30T16:29:12.589Z,99242.06
2022-08-30T16:31:44.440Z,99235.38
2022-08-30T16:34:14.510Z,99242.66
2022-08-30T16:36:42.892Z,99242.53
2022-08-30T16:39:13.388Z,99244.56
2022-08-30T16:41:44.306Z,99241.00
2022-08-30T16:44:13.691Z,99242.25
2022-08-30T16:46:53.190Z,99249.94
2022-08-30T16:49:23.210Z,99250.94
2022-08-30T16:51:54.099Z,99249.84
2022-08-30T16:54:22.390Z,99247.63
2022-08-30T16:56:50.522Z,99249.47
2022-08-30T16:59:19.040Z,99249.66
2022-08-30T17:01:48.256Z,99249.50
2022-08-30T17:04:19.400Z,99246.59
2022-08-30T17:06:51.049Z,99248.03
2022-08-30T17:09:19.337Z,99254.44
2022-08-30T17:11:48.286Z,99252.25
2022-08-30T17:14:21.488Z,99257.13
2022-08-30T17:16:57.601Z,99260.19
2022-08-30T17:19:26.917Z,99259.22
2022-08-30T17:21:58.174Z,99255.72
2022-08-30T17:24:26.976Z,99257.88
2022-08-30T17:26:54.890Z,99265.53
2022-08-30T17:29:26.170Z,99263.47
2022-08-30T17:31:56.901Z,99266.47
2022-08-30T17:34:40.320Z,99268.13
2022-08-30T17:37:09.477Z,99270.91
2022-08-30T17:39:37.754Z,99276.81
2022-08-30T17:42:07.765Z,99271.88
2022-08-30T17:44:36.504Z,99284.94
2022-08-30T17:47:05.109Z,99286.06
2022-08-30T17:49:35.842Z,99280.12
2022-08-30T17:52:04.355Z,99295.75
2022-08-30T17:54:34.278Z,99292.75
2022-08-30T17:57:08.659Z,99300.09
2022-08-30T17:59:39.384Z,99298.88
2022-08-30T18:02:07.932Z,99305.28
2022-08-30T18:04:41.678Z,99307.13
2022-08-30T18:07:12.046Z,99310.91
2022-08-30T18:09:41.521Z,99304.50
2022-08-30T18:12:10.938Z,99311.62
2022-08-30T18:14:39.541Z,99315.13
2022-08-30T18:17:08.007Z,99307.94
2022-08-30T18:19:46.396Z,99313.59
2022-08-30T18:22:25.827Z,99322.19
2022-08-30T18:24:59.134Z,99317.41
2022-08-30T18:27:30.297Z,99332.53
2022-08-30T18:29:58.186Z,99333.38
2022-08-30T18:32:28.858Z,99331.53
2022-08-30T18:35:04.790Z,99341.69
2022-08-30T18:37:34.056Z,99336.75
2022-08-30T18:40:02.148Z,99338.94
2022-08-30T18:42:31.648Z,99338.28
2022-08-30T18:45:08.240Z,99339.56
2022-08-30T18:47:43.453Z,99346.81
2022-08-30T18:50:14.235Z,99341.28
2022-08-30T18:52:42.018Z,99346.91
2022-08-30T18:55:13.319Z,99339.34
2022-08-30T18:57:41.185Z,99343.53
2022-08-30T19:00:10.713Z,99339.63
2022-08-30T19:02:43.439Z,99334.78
2022-08-30T19:05:12.188Z,99341.59
2022-08-30T19:07:40.727Z,99339.44
2022-08-30T19:10:12.368Z,99343.13
2022-08-30T19:12:41.198Z,99340.16
2022-08-30T19:15:11.822Z,99332.22
2022-08-30T19:17:41.756Z,99340.66
2022-08-30T19:20:11.208Z,99339.88
2022-08-30T19:23:06.265Z,99346.09
2022-08-30T19:25:27.987Z,99343.47
2022-08-30T19:27:56.828Z,99341.09
2022-08-30T19:33:14.441Z,99345.00
2022-08-30T19:35:42.298Z,99340.97
2022-08-30T19:38:10.268Z,99350.31
2022-08-30T19:40:39.398Z,99346.94
2022-08-30T19:43:08.389Z,99347.09
2022-08-30T19:45:38.727Z,99349.41
2022-08-30T19:48:07.230Z,99348.22
2022-08-30T19:50:37.223Z,99339.31
2022-08-30T19:53:06.717Z,99346.75
2022-08-30T19:55:37.254Z,99348.06
2022-08-30T19:58:05.207Z,99344.75
2022-08-30T20:00:33.036Z,99342.91
2022-08-30T20:03:07.479Z,99355.03
2022-08-30T20:05:36.097Z,99347.34
2022-08-30T20:08:03.975Z,99349.84
2022-08-30T20:10:32.179Z,99347.75
2022-08-30T20:13:00.218Z,99344.16
2022-08-30T20:15:28.065Z,99343.69
2022-08-30T20:18:05.795Z,99343.31
2022-08-30T20:20:36.438Z,99348.13
2022-08-30T20:23:05.955Z,99340.19
2022-08-30T20:25:35.509Z,99330.78
2022-08-30T20:28:03.569Z,99335.28
2022-08-30T20:30:32.378Z,99331.09
2022-08-30T20:33:03.729Z,99332.31
2022-08-30T20:35:34.628Z,99324.78
2022-08-30T20:38:06.610Z,99315.87
2022-08-30T20:40:37.786Z,99326.50
2022-08-30T20:43:06.690Z,99322.72
2022-08-30T20:45:34.836Z,99319.75
2022-08-30T20:48:03.349Z,99310.41
2022-08-30T20:50:31.686Z,99313.91
2022-08-30T20:52:59.742Z,99321.22
2022-08-30T20:55:27.667Z,99323.09
2022-08-30T20:57:55.479Z,99325.06
2022-08-30T21:00:24.090Z,99325.81
2022-08-30T21:02:54.424Z,99320.63
2022-08-30T21:05:22.399Z,99318.50
2022-08-30T21:07:50.659Z,99320.47
2022-08-30T21:10:23.100Z,99316.84
2022-08-30T21:12:51.843Z,99317.00
2022-08-30T21:15:36.892Z,99320.97
2022-08-30T21:18:06.333Z,99315.13
2022-08-30T21:20:34.121Z,99319.16
2022-08-30T21:23:01.964Z,99327.19
2022-08-30T21:25:33.370Z,99324.63
2022-08-30T21:28:01.427Z,99323.69
2022-08-30T21:30:29.195Z,99328.66
2022-08-30T21:33:00.022Z,99320.59
2022-08-30T21:35:47.508Z,99337.47
2022-08-30T21:38:15.707Z,99334.91
2022-08-30T21:40:44.089Z,99337.00
2022-08-30T21:43:12.497Z,99341.50
2022-08-30T21:45:45.164Z,99343.50
2022-08-30T21:48:13.966Z,99344.13
2022-08-30T21:50:43.025Z,99340.75
2022-08-30T21:53:10.961Z,99344.31
2022-08-30T21:55:43.821Z,99342.78
2022-08-30T21:58:11.679Z,99336.63
2022-08-30T22:00:39.677Z,99340.34
2022-08-30T22:03:07.901Z,99345.87
2022-08-30T22:05:35.728Z,99348.16
2022-08-30T22:08:03.628Z,99344.91
2022-08-30T22:10:33.332Z,99341.59
2022-08-30T22:13:01.338Z,99333.50
2022-08-30T22:15:31.737Z,99335.22
2022-08-30T22:18:00.760Z,99337.31
2022-08-30T22:20:30.412Z,99344.28
2022-08-30T22:22:58.809Z,99341.19
2022-08-30T22:25:26.848Z,99336.75
2022-08-30T22:27:54.712Z,99338.47
2022-08-30T22:30:23.317Z,99332.41
2022-08-30T22:32:51.515Z,99326.62
2022-08-30T22:35:21.100Z,99321.84
2022-08-30T22:37:53.138Z,99317.09
2022-08-30T22:40:21.774Z,99325.50
2022-08-30T22:42:50.091Z,99320.50
2022-08-30T22:45:17.917Z,99318.81
2022-08-30T22:47:45.818Z,99310.81
2022-08-30T22:50:14.418Z,99309.38
2022-08-30T22:52:42.308Z,99302.38
2022-08-30T22:55:10.417Z,99312.66
2022-08-30T22:57:39.269Z,99313.03
2022-08-30T23:00:15.596Z,99299.78
2022-08-30T23:02:48.900Z,99303.41
2022-08-30T23:05:17.547Z,99292.19
2022-08-30T23:07:45.619Z,99292.06
2022-08-30T23:10:14.017Z,99295.06
2022-08-30T23:12:41.939Z,99292.97
2022-08-30T23:15:13.000Z,99290.06
2022-08-30T23:17:40.898Z,99283.50
2022-08-30T23:20:09.048Z,99283.31
2022-08-30T23:22:37.108Z,99294.41
2022-08-30T23:25:24.558Z,99304.47
2022-08-30T23:28:17.403Z,99287.34
2022-08-30T23:31:07.519Z,99299.19
2022-08-30T23:33:54.158Z,99301.06
2022-08-30T23:36:40.658Z,99298.41
2022-08-30T23:39:27.318Z,99299.66
2022-08-30T23:42:13.600Z,99295.84
2022-08-30T23:45:00.250Z,99298.56
2022-08-30T23:47:46.855Z,99293.25
2022-08-30T23:50:33.677Z,99300.87
2022-08-30T23:53:20.065Z,99295.69
2022-08-30T23:56:07.128Z,99300.31
2022-08-30T23:58:55.408Z,99301.53
